Robersonville, NC (27871)

03:38 EDT le 18 septembre 2014 (GMT -0400)
Pitt-Greenville | Change Station
CLOSE
Current Station
Aéroport
Location: Greenville,
Altitude: 26 ft
Stations météo à proximité

Alt. 26 ft 35.64 °N, 77.39 °W | Updated 28 minutes ago

Ciel dégagé
Ciel dégagé
61 ° F
Paraît 61 ° F
N
0
Vent Variable Vent de Nord

Aujourd'hui
Haut(e) -- | Bas -- ° F
--% Risque de précip.
Hier
Haut(e) -- | Bas -- ° F
Precip. -- pouce
6:53 AM 7:11 PM
Lune descendante, 29% visible
Pression 29.95 pouce
Visibilité 7.0 Miles terrestres
Nuages Nuages épars 7000 ft
Point de rosée 61 ° F
Humidité 100%
Précipitations 0.00 pouce
Profondeur de la couche neigeuse Non disponible.
UV 0 sur 12
Pollen 6.00 sur 12
Qualité de l'air Non disponible.
Flu Activity Non disponible.
METAR KPGV 180710Z AUTO 00000KT 7SM SCT070 16/16 A2995 RMK AO2

More Conditions Fewer Conditions

Pression 29.95 pouce
Visibilité 7.0 Miles terrestres
Nuages Nuages épars 7000 ft
Point de rosée 61 ° F
Humidité 100%
Précipitations 0.00 pouce
Profondeur de la couche neigeuse Non disponible.
UV 0 sur 12
Pollen 6.00 sur 12
Qualité de l'air Non disponible.
Flu Activity Non disponible.
METAR KPGV 180710Z AUTO 00000KT 7SM SCT070 16/16 A2995 RMK AO2

More Conditions Fewer Conditions

10-Day Weather Forecast

Almanac

Astronomie

Sep. 18, 2014 Lever Coucher
Temps réel 06:53 EDT 19:11 EDT
Crépuscule civil 06:28 EDT 19:37 EDT
Crépuscule nautique 05:58 EDT 20:07 EDT
Crépuscule astronomique 05:27 EDT 20:37 EDT
Lune 01:51 EDT 15:54 EDT
Durée de lumière visible 13h 09m
Longueur du jour
12h 17m
Tomorrow will be 2m 14s shorter.
Lune descendante, 29% of the Moon is Illuminated
Aujourd'hui
Lune descendante
Sep 24
Nouveau
Oct 1
Premier quartier
Oct 8
Pleine lune
Oct 15
Dernier quartier

Extrêmes aujourd'hui

State Highs State Lows

Community

WunderPhotos

Upload Photos

1,754,299 Photos téléchargées !

Nearby

Épaisseur de neige

Station Depth Altitude
Pas de nouvelles chutes de neige

Activité sismique

Ville Distance Mag. Time & Date
No recent earthquake activity has been reported nearby.
Minimum magnitude displayed is 2.5.

Températures des eaux côtières

Lieu Température
Aucun rapport de station

Stations météo à proximité